Time;durP1;ratioP1;P1;durP2;ratioP2;P2;SDS_P1;SDS_P2;PMS_P1;PMS_P2;Temp;Humidity;BMP_temperature;BMP_pressure;BME280_temperature;BME280_humidity;BME280_pressure;Samples;Min_cycle;Max_cycle;Signal;HPM_P1;HPM_P2
2023/08/26 00:02:19;;;;;;;;;;;;;;;;;;5056168;28;19913;-67
2023/08/26 00:04:46;;;;;;;;;;;;;;;;;;5061517;28;19913;-68
2023/08/26 00:07:11;;;;;;;;;;;;;;;;;;5059898;28;19951;-66
2023/08/26 00:09:37;;;;;;;;;;;;;;;;;;5074847;28;19952;-68
2023/08/26 00:12:03;;;;;;;;;;;;;;;;;;5075236;28;20005;-68
2023/08/26 00:14:29;;;;;;;;;;;;;;;;;;5067610;28;20008;-68
2023/08/26 00:16:55;;;;;;;;;;;;;;;;;;5059433;28;20393;-66
2023/08/26 00:19:21;;;;;;;;;;;;;;;;;;5073666;28;20026;-68
2023/08/26 00:21:47;;;;;;;;;;;;;;;;;;5072164;28;20037;-68
2023/08/26 00:24:13;;;;;;;;;;;;;;;;;;5059611;28;19913;-68
2023/08/26 00:26:39;;;;;;;;;;;;;;;;;;5058835;28;19948;-68
2023/08/26 00:29:05;;;;;;;;;;;;;;;;;;5063524;28;19956;-63
2023/08/26 00:31:31;;;;;;;;;;;;;;;;;;5061025;28;20420;-63
2023/08/26 00:34:01;;;;;;;;;;;;;;;;;;5058632;28;19955;-63
2023/08/26 00:36:27;;;;;;;;;;;;;;;;;;5059045;28;19960;-63
2023/08/26 00:38:53;;;;;;;;;;;;;;;;;;5068830;28;19955;-63
2023/08/26 00:41:19;;;;;;;;;;;;;;;;;;5058048;28;20369;-63
2023/08/26 00:43:45;;;;;;;;;;;;;;;;;;5054830;28;19916;-63
2023/08/26 00:46:11;;;;;;;;;;;;;;;;;;5058569;28;19979;-63
2023/08/26 00:48:37;;;;;;;;;;;;;;;;;;5053298;28;20001;-63
2023/08/26 00:51:03;;;;;;;;;;;;;;;;;;5062954;28;19921;-63
2023/08/26 00:53:29;;;;;;;;;;;;;;;;;;5057328;28;19913;-63
2023/08/26 00:55:55;;;;;;;;;;;;;;;;;;5061587;28;19932;-63
2023/08/26 00:58:21;;;;;;;;;;;;;;;;;;5067090;28;19984;-63
2023/08/26 01:00:47;;;;;;;;;;;;;;;;;;5060145;28;20402;-63
2023/08/26 01:03:13;;;;;;;;;;;;;;;;;;5059214;28;19921;-63
2023/08/26 01:05:39;;;;;;;;;;;;;;;;;;5065656;28;20010;-63
2023/08/26 01:08:05;;;;;;;;;;;;;;;;;;5061519;28;20352;-63
2023/08/26 01:10:31;;;;;;;;;;;;;;;;;;5065009;28;19923;-63
2023/08/26 01:12:57;;;;;;;;;;;;;;;;;;5063666;28;19920;-63
2023/08/26 01:15:23;;;;;;;;;;;;;;;;;;5057071;28;19928;-63
2023/08/26 01:17:48;;;;;;;;;;;;;;;;;;5068076;28;19924;-63
2023/08/26 01:20:14;;;;;;;;;;;;;;;;;;5057957;28;20390;-63
2023/08/26 01:22:40;;;;;;;;;;;;;;;;;;5065421;28;19919;-63
2023/08/26 01:25:06;;;;;;;;;;;;;;;;;;5056186;28;19913;-63
2023/08/26 01:27:32;;;;;;;;;;;;;;;;;;5057245;28;20023;-63
2023/08/26 01:29:58;;;;;;;;;;;;;;;;;;5066899;28;19947;-63
2023/08/26 01:32:24;;;;;;;;;;;;;;;;;;5060018;28;19920;-63
2023/08/26 01:34:50;;;;;;;;;;;;;;;;;;5057342;28;19940;-63
2023/08/26 01:37:16;;;;;;;;;;;;;;;;;;5064247;28;20295;-63
2023/08/26 01:39:42;;;;;;;;;;;;;;;;;;5060436;28;19913;-64
2023/08/26 01:42:08;;;;;;;;;;;;;;;;;;5060903;28;19917;-63
2023/08/26 01:44:34;;;;;;;;;;;;;;;;;;5054000;28;20195;-63
2023/08/26 01:46:59;;;;;;;;;;;;;;;;;;5057780;28;19913;-64
2023/08/26 01:49:25;;;;;;;;;;;;;;;;;;5068377;28;20378;-63
2023/08/26 01:51:51;;;;;;;;;;;;;;;;;;5064908;28;19923;-63
2023/08/26 01:54:17;;;;;;;;;;;;;;;;;;5062754;28;20005;-63
2023/08/26 01:56:43;;;;;;;;;;;;;;;;;;5060864;28;19966;-63
2023/08/26 01:59:09;;;;;;;;;;;;;;;;;;5076937;28;20009;-64
2023/08/26 02:01:35;;;;;;;;;;;;;;;;;;5078529;28;20046;-64
2023/08/26 02:04:01;;;;;;;;;;;;;;;;;;5070951;28;19958;-64
2023/08/26 02:06:27;;;;;;;;;;;;;;;;;;5064825;28;20272;-64
2023/08/26 02:08:53;;;;;;;;;;;;;;;;;;5066556;28;19952;-63
2023/08/26 02:11:19;;;;;;;;;;;;;;;;;;5069681;28;19968;-63
2023/08/26 02:13:44;;;;;;;;;;;;;;;;;;5057451;28;19916;-64
2023/08/26 02:16:10;;;;;;;;;;;;;;;;;;5076313;28;19916;-64
2023/08/26 02:18:36;;;;;;;;;;;;;;;;;;5069339;28;19908;-64
2023/08/26 02:21:02;;;;;;;;;;;;;;;;;;5057006;28;19916;-63
2023/08/26 02:23:28;;;;;;;;;;;;;;;;;;5060325;28;19966;-63
2023/08/26 02:25:54;;;;;;;;;;;;;;;;;;5069932;28;19974;-63
2023/08/26 02:28:20;;;;;;;;;;;;;;;;;;5055891;28;19959;-64
2023/08/26 02:30:46;;;;;;;;;;;;;;;;;;5058448;28;20372;-64
2023/08/26 02:33:12;;;;;;;;;;;;;;;;;;5066224;28;19965;-62
2023/08/26 02:35:38;;;;;;;;;;;;;;;;;;5064249;28;19924;-64
2023/08/26 02:38:04;;;;;;;;;;;;;;;;;;5068456;28;19924;-64
2023/08/26 02:40:29;;;;;;;;;;;;;;;;;;5063575;28;20038;-64
2023/08/26 02:42:55;;;;;;;;;;;;;;;;;;5069718;28;19947;-64
2023/08/26 02:45:21;;;;;;;;;;;;;;;;;;5067639;28;20343;-63
2023/08/26 02:47:47;;;;;;;;;;;;;;;;;;5053556;28;20400;-63
2023/08/26 02:50:14;;;;;;;;;;;;;;;;;;5062933;28;19912;-69
2023/08/26 02:52:40;;;;;;;;;;;;;;;;;;5073235;28;20347;-66
2023/08/26 02:55:06;;;;;;;;;;;;;;;;;;5064330;28;19948;-69
2023/08/26 02:57:32;;;;;;;;;;;;;;;;;;5069861;28;19922;-68
2023/08/26 02:59:57;;;;;;;;;;;;;;;;;;5066442;28;19955;-66
2023/08/26 03:02:24;;;;;;;;;;;;;;;;;;5064861;28;20016;-68
2023/08/26 03:04:50;;;;;;;;;;;;;;;;;;5059939;28;19924;-67
2023/08/26 03:07:16;;;;;;;;;;;;;;;;;;5063736;28;19944;-67
2023/08/26 03:09:42;;;;;;;;;;;;;;;;;;5067267;28;19999;-68
2023/08/26 03:12:08;;;;;;;;;;;;;;;;;;5068629;28;19920;-68
2023/08/26 03:14:34;;;;;;;;;;;;;;;;;;5065175;28;20364;-68
2023/08/26 03:17:00;;;;;;;;;;;;;;;;;;5070162;28;19946;-67
2023/08/26 03:19:26;;;;;;;;;;;;;;;;;;5061287;28;19991;-68
2023/08/26 03:21:51;;;;;;;;;;;;;;;;;;5058945;28;19989;-67
2023/08/26 03:24:17;;;;;;;;;;;;;;;;;;5070519;28;19913;-68
2023/08/26 03:26:43;;;;;;;;;;;;;;;;;;5068558;28;20414;-65
2023/08/26 03:29:09;;;;;;;;;;;;;;;;;;5058747;28;19944;-68
2023/08/26 03:31:35;;;;;;;;;;;;;;;;;;5061970;28;19971;-68
2023/08/26 03:34:01;;;;;;;;;;;;;;;;;;5062635;28;20296;-66
2023/08/26 03:36:27;;;;;;;;;;;;;;;;;;5063538;28;19912;-68
2023/08/26 03:38:55;;;;;;;;;;;;;;;;;;5070576;28;20308;-68
2023/08/26 03:41:20;;;;;;;;;;;;;;;;;;5059039;28;19912;-67
2023/08/26 03:43:46;;;;;;;;;;;;;;;;;;5074068;28;19912;-68
2023/08/26 03:46:13;;;;;;;;;;;;;;;;;;5068196;28;19951;-67
2023/08/26 03:48:39;;;;;;;;;;;;;;;;;;5071166;28;19912;-68
2023/08/26 03:51:05;;;;;;;;;;;;;;;;;;5060266;28;19978;-68
2023/08/26 03:53:32;;;;;;;;;;;;;;;;;;5073644;28;19920;-67
2023/08/26 03:55:58;;;;;;;;;;;;;;;;;;5075188;28;19909;-67
2023/08/26 03:58:26;;;;;;;;;;;;;;;;;;5085310;28;20392;-68
2023/08/26 04:00:52;;;;;;;;;;;;;;;;;;5068299;28;19971;-63
2023/08/26 04:03:19;;;;;;;;;;;;;;;;;;5058877;28;19919;-63
2023/08/26 04:05:44;;;;;;;;;;;;;;;;;;5068434;28;19916;-63
2023/08/26 04:08:10;;;;;;;;;;;;;;;;;;5065783;28;19997;-63
2023/08/26 04:10:36;;;;;;;;;;;;;;;;;;5063904;28;19982;-63
2023/08/26 04:13:02;;;;;;;;;;;;;;;;;;5074800;28;19985;-63
2023/08/26 04:15:28;;;;;;;;;;;;;;;;;;5066813;28;19912;-63
2023/08/26 04:17:54;;;;;;;;;;;;;;;;;;5071599;28;20407;-63
2023/08/26 04:20:21;;;;;;;;;;;;;;;;;;5069154;28;19948;-63
2023/08/26 04:22:47;;;;;;;;;;;;;;;;;;5071354;28;19952;-63
2023/08/26 04:25:13;;;;;;;;;;;;;;;;;;5064830;28;20332;-63
2023/08/26 04:27:39;;;;;;;;;;;;;;;;;;5057847;28;19921;-63
2023/08/26 04:30:05;;;;;;;;;;;;;;;;;;5078562;28;19920;-62
2023/08/26 04:32:31;;;;;;;;;;;;;;;;;;5071087;28;20011;-63
2023/08/26 04:34:57;;;;;;;;;;;;;;;;;;5073648;28;20006;-63
2023/08/26 04:37:23;;;;;;;;;;;;;;;;;;5066126;28;19913;-63
2023/08/26 04:39:49;;;;;;;;;;;;;;;;;;5073432;28;19913;-63
2023/08/26 04:42:14;;;;;;;;;;;;;;;;;;5073423;28;20266;-63
2023/08/26 04:44:40;;;;;;;;;;;;;;;;;;5072613;28;19919;-62
2023/08/26 04:47:07;;;;;;;;;;;;;;;;;;5069661;28;19959;-63
2023/08/26 04:49:32;;;;;;;;;;;;;;;;;;5064150;28;20033;-62
2023/08/26 04:51:59;;;;;;;;;;;;;;;;;;5067855;28;20065;-62
2023/08/26 04:54:25;;;;;;;;;;;;;;;;;;5070213;28;19920;-63
2023/08/26 04:56:51;;;;;;;;;;;;;;;;;;5073167;28;19978;-62
2023/08/26 04:59:17;;;;;;;;;;;;;;;;;;5073300;28;19955;-62
2023/08/26 05:01:42;;;;;;;;;;;;;;;;;;5070263;28;19920;-62
2023/08/26 05:04:08;;;;;;;;;;;;;;;;;;5062985;28;20379;-62
2023/08/26 05:06:34;;;;;;;;;;;;;;;;;;5062849;28;19967;-62
2023/08/26 05:09:00;;;;;;;;;;;;;;;;;;5068649;28;20570;-64
2023/08/26 05:11:26;;;;;;;;;;;;;;;;;;5068839;28;19923;-64
2023/08/26 05:13:52;;;;;;;;;;;;;;;;;;5072167;28;19913;-64
2023/08/26 05:16:18;;;;;;;;;;;;;;;;;;5071898;28;20261;-64
2023/08/26 05:18:44;;;;;;;;;;;;;;;;;;5072201;28;19912;-64
2023/08/26 05:21:11;;;;;;;;;;;;;;;;;;5072709;28;20396;-64
2023/08/26 05:23:36;;;;;;;;;;;;;;;;;;5073364;28;20237;-64
2023/08/26 05:26:02;;;;;;;;;;;;;;;;;;5077072;28;19959;-64
2023/08/26 05:28:28;;;;;;;;;;;;;;;;;;5071161;28;19912;-64
2023/08/26 05:30:54;;;;;;;;;;;;;;;;;;5067404;28;20386;-63
2023/08/26 05:33:20;;;;;;;;;;;;;;;;;;5068156;28;19959;-64
2023/08/26 05:35:46;;;;;;;;;;;;;;;;;;5066762;28;20301;-64
2023/08/26 05:38:12;;;;;;;;;;;;;;;;;;5071524;28;19913;-64
2023/08/26 05:40:38;;;;;;;;;;;;;;;;;;5062259;28;19966;-64
2023/08/26 05:43:04;;;;;;;;;;;;;;;;;;5066963;28;20264;-64
2023/08/26 05:45:31;;;;;;;;;;;;;;;;;;5067663;28;19916;-64
2023/08/26 05:47:57;;;;;;;;;;;;;;;;;;5060216;28;19942;-63
2023/08/26 05:50:22;;;;;;;;;;;;;;;;;;5070181;28;19913;-63
2023/08/26 05:52:48;;;;;;;;;;;;;;;;;;5069657;28;19908;-64
2023/08/26 05:55:14;;;;;;;;;;;;;;;;;;5072097;28;19968;-63
2023/08/26 05:57:40;;;;;;;;;;;;;;;;;;5070391;28;20290;-64
2023/08/26 06:00:06;;;;;;;;;;;;;;;;;;5066937;28;19963;-63
2023/08/26 06:02:32;;;;;;;;;;;;;;;;;;5060002;28;20364;-63
2023/08/26 06:04:59;;;;;;;;;;;;;;;;;;5064184;28;19958;-64
2023/08/26 06:07:25;;;;;;;;;;;;;;;;;;5067025;28;19921;-64
2023/08/26 06:09:50;;;;;;;;;;;;;;;;;;5066286;28;19959;-63
2023/08/26 06:12:16;;;;;;;;;;;;;;;;;;5064844;28;19916;-63
2023/08/26 06:14:42;;;;;;;;;;;;;;;;;;5064820;28;19995;-64
2023/08/26 06:17:08;;;;;;;;;;;;;;;;;;5063754;28;19956;-64
2023/08/26 06:19:34;;;;;;;;;;;;;;;;;;5061710;28;20428;-59
2023/08/26 06:22:00;;;;;;;;;;;;;;;;;;5066225;28;19912;-58
2023/08/26 06:24:26;;;;;;;;;;;;;;;;;;5069236;28;19934;-60
2023/08/26 06:26:52;;;;;;;;;;;;;;;;;;5057949;28;19947;-61
2023/08/26 06:29:19;;;;;;;;;;;;;;;;;;5053970;28;19920;-60
2023/08/26 06:31:45;;;;;;;;;;;;;;;;;;5066768;28;19920;-59
2023/08/26 06:34:11;;;;;;;;;;;;;;;;;;5067573;28;20053;-59
2023/08/26 06:36:37;;;;;;;;;;;;;;;;;;5063917;28;19958;-60
2023/08/26 06:39:03;;;;;;;;;;;;;;;;;;5068581;28;19952;-59
2023/08/26 06:41:29;;;;;;;;;;;;;;;;;;5060767;28;19913;-59
2023/08/26 06:43:56;;;;;;;;;;;;;;;;;;5063624;28;19913;-60
2023/08/26 06:46:22;;;;;;;;;;;;;;;;;;5061483;28;19959;-62
2023/08/26 06:48:47;;;;;;;;;;;;;;;;;;5065504;28;20273;-59
2023/08/26 06:51:13;;;;;;;;;;;;;;;;;;5063792;28;19917;-60
2023/08/26 06:53:39;;;;;;;;;;;;;;;;;;5062975;28;19958;-60
2023/08/26 06:56:05;;;;;;;;;;;;;;;;;;5062372;28;20380;-59
2023/08/26 06:58:31;;;;;;;;;;;;;;;;;;5066268;28;19920;-59
2023/08/26 07:00:57;;;;;;;;;;;;;;;;;;5061600;28;19916;-59
2023/08/26 07:03:24;;;;;;;;;;;;;;;;;;5063970;28;19913;-59
2023/08/26 07:05:50;;;;;;;;;;;;;;;;;;5058757;28;20311;-59
2023/08/26 07:08:16;;;;;;;;;;;;;;;;;;5065450;28;19923;-58
2023/08/26 07:10:44;;;;;;;;;;;;;;;;;;5058261;28;20090;-59
2023/08/26 07:13:10;;;;;;;;;;;;;;;;;;5068317;28;20345;-62
2023/08/26 07:15:36;;;;;;;;;;;;;;;;;;5064896;28;19920;-59
2023/08/26 07:18:02;;;;;;;;;;;;;;;;;;5065698;28;19981;-58
2023/08/26 07:20:28;;;;;;;;;;;;;;;;;;5071106;28;20331;-58
2023/08/26 07:22:54;;;;;;;;;;;;;;;;;;5073740;28;19963;-59
2023/08/26 07:25:20;;;;;;;;;;;;;;;;;;5063417;28;19959;-60
2023/08/26 07:27:45;;;;;;;;;;;;;;;;;;5067100;28;19963;-61
2023/08/26 07:30:11;;;;;;;;;;;;;;;;;;5064043;28;20025;-63
2023/08/26 07:32:37;;;;;;;;;;;;;;;;;;5065360;28;19968;-64
2023/08/26 07:35:03;;;;;;;;;;;;;;;;;;5060827;28;19927;-63
2023/08/26 07:37:29;;;;;;;;;;;;;;;;;;5060347;28;19983;-63
2023/08/26 07:39:55;;;;;;;;;;;;;;;;;;5064391;28;19974;-63
2023/08/26 07:42:23;;;;;;;;;;;;;;;;;;5063667;28;19967;-63
2023/08/26 07:44:49;;;;;;;;;;;;;;;;;;5071827;28;19935;-63
2023/08/26 07:47:15;;;;;;;;;;;;;;;;;;5071292;28;20391;-63
2023/08/26 07:49:41;;;;;;;;;;;;;;;;;;5065326;28;19924;-63
2023/08/26 07:52:07;;;;;;;;;;;;;;;;;;5072617;28;19959;-63
2023/08/26 07:54:33;;;;;;;;;;;;;;;;;;5067172;28;19999;-63
2023/08/26 07:57:00;;;;;;;;;;;;;;;;;;5085216;28;19970;-63
2023/08/26 07:59:25;;;;;;;;;;;;;;;;;;5062878;28;20011;-63
2023/08/26 08:01:51;;;;;;;;;;;;;;;;;;5058957;28;20039;-63
2023/08/26 08:04:17;;;;;;;;;;;;;;;;;;5072470;28;20352;-63
2023/08/26 08:06:43;;;;;;;;;;;;;;;;;;5070655;28;19912;-63
2023/08/26 08:09:09;;;;;;;;;;;;;;;;;;5065291;28;20397;-63
2023/08/26 08:11:35;;;;;;;;;;;;;;;;;;5065881;28;20066;-63
2023/08/26 08:14:01;;;;;;;;;;;;;;;;;;5064485;28;19965;-63
2023/08/26 08:16:27;;;;;;;;;;;;;;;;;;5061894;28;20360;-63
2023/08/26 08:18:53;;;;;;;;;;;;;;;;;;5067540;28;19948;-63
2023/08/26 08:21:19;;;;;;;;;;;;;;;;;;5065575;28;20267;-63
2023/08/26 08:23:45;;;;;;;;;;;;;;;;;;5058733;28;19959;-63
2023/08/26 08:26:11;;;;;;;;;;;;;;;;;;5061114;28;19952;-62
2023/08/26 08:28:38;;;;;;;;;;;;;;;;;;5058013;28;19970;-63
2023/08/26 08:31:04;;;;;;;;;;;;;;;;;;5056689;28;20009;-63
2023/08/26 08:33:30;;;;;;;;;;;;;;;;;;5063439;28;20024;-63
2023/08/26 08:35:55;;;;;;;;;;;;;;;;;;5063416;28;19952;-62
2023/08/26 08:38:21;;;;;;;;;;;;;;;;;;5059801;28;19967;-62
2023/08/26 08:40:47;;;;;;;;;;;;;;;;;;5067249;28;20014;-60
2023/08/26 08:43:13;;;;;;;;;;;;;;;;;;5068051;28;20041;-58
2023/08/26 08:45:39;;;;;;;;;;;;;;;;;;5063699;28;19908;-59
2023/08/26 08:48:05;;;;;;;;;;;;;;;;;;5063879;28;19917;-59
2023/08/26 08:50:31;;;;;;;;;;;;;;;;;;5068576;28;19913;-59
2023/08/26 08:52:57;;;;;;;;;;;;;;;;;;5061551;28;19924;-59
2023/08/26 08:55:23;;;;;;;;;;;;;;;;;;5066094;28;19959;-60
2023/08/26 08:57:49;;;;;;;;;;;;;;;;;;5068865;28;20009;-58
2023/08/26 09:00:15;;;;;;;;;;;;;;;;;;5070884;28;19917;-59
2023/08/26 09:02:41;;;;;;;;;;;;;;;;;;5062729;28;19952;-58
2023/08/26 09:05:07;;;;;;;;;;;;;;;;;;5073599;28;19916;-59
2023/08/26 09:07:33;;;;;;;;;;;;;;;;;;5064944;28;19909;-59
2023/08/26 09:09:59;;;;;;;;;;;;;;;;;;5065725;28;20011;-58
2023/08/26 09:12:25;;;;;;;;;;;;;;;;;;5071719;28;19963;-59
2023/08/26 09:14:51;;;;;;;;;;;;;;;;;;5071269;28;20439;-58
2023/08/26 09:17:17;;;;;;;;;;;;;;;;;;5064112;28;19916;-60
2023/08/26 09:19:43;;;;;;;;;;;;;;;;;;5075945;28;19954;-59
2023/08/26 09:22:09;;;;;;;;;;;;;;;;;;5065070;28;19972;-59
2023/08/26 09:24:35;;;;;;;;;;;;;;;;;;5062560;28;19974;-59
2023/08/26 09:27:01;;;;;;;;;;;;;;;;;;5069584;28;20368;-58
2023/08/26 09:29:27;;;;;;;;;;;;;;;;;;5075473;28;19913;-58
2023/08/26 09:31:53;;;;;;;;;;;;;;;;;;5062754;28;19964;-60
2023/08/26 09:34:19;;;;;;;;;;;;;;;;;;5067508;28;19942;-59
2023/08/26 09:36:45;;;;;;;;;;;;;;;;;;5070378;28;19920;-61
2023/08/26 09:39:11;;;;;;;;;;;;;;;;;;5074904;28;19919;-61
2023/08/26 09:41:37;;;;;;;;;;;;;;;;;;5071274;28;20296;-58
2023/08/26 09:44:03;;;;;;;;;;;;;;;;;;5063242;28;19962;-58
2023/08/26 09:46:29;;;;;;;;;;;;;;;;;;5064818;28;19920;-59
2023/08/26 09:48:55;;;;;;;;;;;;;;;;;;5063556;28;19960;-66
2023/08/26 09:51:21;;;;;;;;;;;;;;;;;;5066382;28;19956;-60
2023/08/26 09:53:46;;;;;;;;;;;;;;;;;;5062512;28;20008;-61
2023/08/26 09:56:12;;;;;;;;;;;;;;;;;;5068055;28;19923;-59
2023/08/26 09:58:39;;;;;;;;;;;;;;;;;;5063804;28;20255;-57
2023/08/26 10:01:05;;;;;;;;;;;;;;;;;;5066717;28;20522;-59
2023/08/26 10:03:30;;;;;;;;;;;;;;;;;;5064896;28;20023;-60
2023/08/26 10:05:56;;;;;;;;;;;;;;;;;;5060656;28;19955;-56
2023/08/26 10:08:22;;;;;;;;;;;;;;;;;;5064309;28;19916;-59
2023/08/26 10:10:48;;;;;;;;;;;;;;;;;;5055912;28;19964;-59
2023/08/26 10:13:14;;;;;;;;;;;;;;;;;;5060201;28;20376;-57
2023/08/26 10:15:40;;;;;;;;;;;;;;;;;;5068258;28;19919;-57
2023/08/26 10:18:06;;;;;;;;;;;;;;;;;;5062886;28;19944;-60
2023/08/26 10:20:32;;;;;;;;;;;;;;;;;;5067164;28;19916;-59
2023/08/26 10:22:58;;;;;;;;;;;;;;;;;;5066877;28;20437;-59
2023/08/26 10:25:24;;;;;;;;;;;;;;;;;;5057865;28;19960;-60
2023/08/26 10:27:50;;;;;;;;;;;;;;;;;;5064631;28;20311;-59
2023/08/26 10:30:15;;;;;;;;;;;;;;;;;;5059724;28;19934;-58
2023/08/26 10:32:43;;;;;;;;;;;;;;;;;;5068461;28;19932;-59
2023/08/26 10:35:09;;;;;;;;;;;;;;;;;;5065770;28;19924;-57
2023/08/26 10:37:35;;;;;;;;;;;;;;;;;;5071203;28;20376;-56
2023/08/26 10:40:00;;;;;;;;;;;;;;;;;;5059356;28;19952;-59
2023/08/26 10:42:26;;;;;;;;;;;;;;;;;;5064020;28;19934;-63
2023/08/26 10:44:52;;;;;;;;;;;;;;;;;;5062675;28;20372;-58
2023/08/26 10:47:18;;;;;;;;;;;;;;;;;;5066240;28;19927;-59
2023/08/26 10:49:44;;;;;;;;;;;;;;;;;;5065003;28;19955;-59
2023/08/26 10:52:10;;;;;;;;;;;;;;;;;;5067371;28;19920;-57
2023/08/26 10:54:36;;;;;;;;;;;;;;;;;;5070553;28;19973;-56
2023/08/26 10:57:02;;;;;;;;;;;;;;;;;;5065473;28;19920;-57
2023/08/26 10:59:28;;;;;;;;;;;;;;;;;;5066443;28;19912;-62
2023/08/26 11:01:54;;;;;;;;;;;;;;;;;;5067597;28;19971;-60
2023/08/26 11:04:20;;;;;;;;;;;;;;;;;;5063363;28;19916;-60
2023/08/26 11:06:46;;;;;;;;;;;;;;;;;;5067303;28;19920;-60
2023/08/26 11:09:12;;;;;;;;;;;;;;;;;;5076892;28;20415;-62
2023/08/26 11:11:37;;;;;;;;;;;;;;;;;;5060052;28;19917;-62
2023/08/26 11:14:03;;;;;;;;;;;;;;;;;;5056989;28;19916;-63
2023/08/26 11:16:29;;;;;;;;;;;;;;;;;;5059270;28;20016;-60
2023/08/26 11:18:55;;;;;;;;;;;;;;;;;;5065117;28;19913;-61
2023/08/26 11:21:22;;;;;;;;;;;;;;;;;;5062955;28;20020;-61
2023/08/26 11:23:48;;;;;;;;;;;;;;;;;;5059103;28;19917;-61
2023/08/26 11:26:14;;;;;;;;;;;;;;;;;;5056919;28;20033;-63
2023/08/26 11:28:40;;;;;;;;;;;;;;;;;;5062824;28;20487;-63
2023/08/26 11:31:06;;;;;;;;;;;;;;;;;;5062344;28;20007;-62
2023/08/26 11:33:32;;;;;;;;;;;;;;;;;;5058295;28;20015;-63
2023/08/26 11:35:58;;;;;;;;;;;;;;;;;;5063514;28;19920;-63
2023/08/26 11:38:24;;;;;;;;;;;;;;;;;;5060505;28;20305;-63
2023/08/26 11:40:50;;;;;;;;;;;;;;;;;;5061630;28;20284;-63
2023/08/26 11:43:16;;;;;;;;;;;;;;;;;;5068505;28;19993;-62
2023/08/26 11:45:42;;;;;;;;;;;;;;;;;;5057731;28;19921;-61
2023/08/26 11:48:09;;;;;;;;;;;;;;;;;;5065042;28;20014;-62
2023/08/26 11:50:35;;;;;;;;;;;;;;;;;;5060759;28;20140;-62
2023/08/26 11:53:01;;;;;;;;;;;;;;;;;;5055169;28;20328;-63
2023/08/26 11:55:28;;;;;;;;;;;;;;;;;;5055910;28;20257;-62
2023/08/26 11:57:54;;;;;;;;;;;;;;;;;;5056259;28;20277;-63
2023/08/26 12:00:20;;;;;;;;;;;;;;;;;;5060174;28;19966;-61
2023/08/26 12:02:46;;;;;;;;;;;;;;;;;;5058365;28;19917;-60
2023/08/26 12:05:12;;;;;;;;;;;;;;;;;;5062934;28;20374;-61
2023/08/26 12:07:38;;;;;;;;;;;;;;;;;;5067647;28;19955;-61
2023/08/26 12:10:03;;;;;;;;;;;;;;;;;;5057943;28;19972;-65
2023/08/26 12:12:29;;;;;;;;;;;;;;;;;;5061386;28;19924;-65
2023/08/26 12:14:55;;;;;;;;;;;;;;;;;;5056649;28;19922;-64
2023/08/26 12:17:21;;;;;;;;;;;;;;;;;;5056317;28;20387;-63
2023/08/26 12:19:47;;;;;;;;;;;;;;;;;;5059767;28;20000;-65
2023/08/26 12:22:13;;;;;;;;;;;;;;;;;;5062527;28;20067;-64
2023/08/26 12:24:39;;;;;;;;;;;;;;;;;;5070404;28;19966;-66
2023/08/26 12:27:05;;;;;;;;;;;;;;;;;;5058539;28;20263;-65
2023/08/26 12:29:31;;;;;;;;;;;;;;;;;;5057768;28;19960;-64
2023/08/26 12:31:57;;;;;;;;;;;;;;;;;;5060908;28;20015;-65
2023/08/26 12:34:22;;;;;;;;;;;;;;;;;;5065003;28;20315;-65
2023/08/26 12:36:48;;;;;;;;;;;;;;;;;;5067488;28;19944;-65
2023/08/26 12:39:14;;;;;;;;;;;;;;;;;;5058970;28;19953;-64
2023/08/26 12:41:40;;;;;;;;;;;;;;;;;;5056772;28;19917;-64
2023/08/26 12:44:06;;;;;;;;;;;;;;;;;;5063884;28;19913;-64
2023/08/26 12:46:33;;;;;;;;;;;;;;;;;;5062468;28;19913;-66
2023/08/26 12:48:59;;;;;;;;;;;;;;;;;;5065417;28;19940;-65
2023/08/26 12:51:25;;;;;;;;;;;;;;;;;;5066982;28;20318;-64
2023/08/26 12:53:51;;;;;;;;;;;;;;;;;;5059900;28;20037;-65
2023/08/26 12:56:17;;;;;;;;;;;;;;;;;;5064216;28;19995;-64
2023/08/26 12:58:42;;;;;;;;;;;;;;;;;;5058788;28;19913;-65
2023/08/26 13:01:08;;;;;;;;;;;;;;;;;;5057189;28;20432;-66
2023/08/26 13:03:34;;;;;;;;;;;;;;;;;;5063487;28;19913;-66
2023/08/26 13:06:00;;;;;;;;;;;;;;;;;;5067615;28;19943;-65
2023/08/26 13:08:26;;;;;;;;;;;;;;;;;;5066163;28;19919;-65
2023/08/26 13:10:53;;;;;;;;;;;;;;;;;;5061180;28;19948;-61
2023/08/26 13:13:19;;;;;;;;;;;;;;;;;;5060602;28;19966;-65
2023/08/26 13:15:45;;;;;;;;;;;;;;;;;;5057397;28;20173;-65
2023/08/26 13:18:11;;;;;;;;;;;;;;;;;;5060200;28;19980;-64
2023/08/26 13:20:37;;;;;;;;;;;;;;;;;;5065022;28;19923;-59
2023/08/26 13:23:03;;;;;;;;;;;;;;;;;;5066808;28;19920;-61
2023/08/26 13:25:29;;;;;;;;;;;;;;;;;;5060152;28;19993;-57
2023/08/26 13:27:55;;;;;;;;;;;;;;;;;;5059372;28;19913;-58
2023/08/26 13:30:21;;;;;;;;;;;;;;;;;;5062481;28;20491;-59
2023/08/26 13:32:47;;;;;;;;;;;;;;;;;;5070322;28;19921;-59
2023/08/26 13:35:13;;;;;;;;;;;;;;;;;;5059261;28;20567;-60
2023/08/26 13:37:38;;;;;;;;;;;;;;;;;;5063816;28;19917;-61
2023/08/26 13:40:04;;;;;;;;;;;;;;;;;;5063521;28;19956;-58
2023/08/26 13:42:30;;;;;;;;;;;;;;;;;;5066393;28;20392;-61
2023/08/26 13:44:56;;;;;;;;;;;;;;;;;;5066137;28;19919;-58
2023/08/26 13:47:22;;;;;;;;;;;;;;;;;;5066011;28;19936;-59
2023/08/26 13:49:48;;;;;;;;;;;;;;;;;;5070823;28;19947;-58
2023/08/26 13:52:14;;;;;;;;;;;;;;;;;;5068875;28;19926;-59
2023/08/26 13:54:40;;;;;;;;;;;;;;;;;;5068319;28;19917;-59
2023/08/26 13:57:06;;;;;;;;;;;;;;;;;;5061282;28;19947;-58
2023/08/26 13:59:32;;;;;;;;;;;;;;;;;;5068698;28;20271;-58
2023/08/26 14:01:58;;;;;;;;;;;;;;;;;;5069958;28;19995;-58
2023/08/26 14:04:24;;;;;;;;;;;;;;;;;;5067266;28;20020;-59
2023/08/26 14:06:50;;;;;;;;;;;;;;;;;;5069167;28;20265;-58
2023/08/26 14:09:16;;;;;;;;;;;;;;;;;;5062872;28;19916;-59
2023/08/26 14:11:43;;;;;;;;;;;;;;;;;;5065926;28;19972;-58
2023/08/26 14:14:08;;;;;;;;;;;;;;;;;;5066733;28;19962;-58
2023/08/26 14:16:35;;;;;;;;;;;;;;;;;;5060369;28;19952;-61
2023/08/26 14:19:00;;;;;;;;;;;;;;;;;;5062075;28;19919;-59
2023/08/26 14:21:26;;;;;;;;;;;;;;;;;;5068896;28;19975;-60
2023/08/26 14:23:52;;;;;;;;;;;;;;;;;;5061899;28;19965;-59
2023/08/26 14:26:18;;;;;;;;;;;;;;;;;;5057071;28;19966;-59
2023/08/26 14:28:44;;;;;;;;;;;;;;;;;;5072427;28;19912;-66
2023/08/26 14:31:10;;;;;;;;;;;;;;;;;;5068988;28;19927;-62
2023/08/26 14:33:36;;;;;;;;;;;;;;;;;;5058712;28;19991;-62
2023/08/26 14:36:03;;;;;;;;;;;;;;;;;;5060496;28;19924;-62
2023/08/26 14:38:28;;;;;;;;;;;;;;;;;;5071658;28;19916;-62
2023/08/26 14:40:54;;;;;;;;;;;;;;;;;;5065842;28;19970;-62
2023/08/26 14:43:20;;;;;;;;;;;;;;;;;;5067272;28;20457;-62
2023/08/26 14:45:46;;;;;;;;;;;;;;;;;;5062712;28;20491;-62
2023/08/26 14:48:12;;;;;;;;;;;;;;;;;;5054450;28;20007;-62
2023/08/26 14:50:38;;;;;;;;;;;;;;;;;;5064092;28;20268;-62
2023/08/26 14:53:04;;;;;;;;;;;;;;;;;;5055105;28;19983;-62
2023/08/26 14:55:30;;;;;;;;;;;;;;;;;;5060873;28;20389;-62
2023/08/26 14:57:56;;;;;;;;;;;;;;;;;;5062891;28;19923;-62
2023/08/26 15:00:23;;;;;;;;;;;;;;;;;;5068765;28;19956;-62
2023/08/26 15:02:48;;;;;;;;;;;;;;;;;;5063833;28;19916;-62
2023/08/26 15:05:14;;;;;;;;;;;;;;;;;;5067444;28;19966;-62
2023/08/26 15:07:40;;;;;;;;;;;;;;;;;;5070024;28;19951;-62
2023/08/26 15:10:06;;;;;;;;;;;;;;;;;;5067789;28;19919;-62
2023/08/26 15:12:32;;;;;;;;;;;;;;;;;;5058416;28;19917;-62
2023/08/26 15:14:58;;;;;;;;;;;;;;;;;;5058888;28;19999;-62
2023/08/26 15:17:24;;;;;;;;;;;;;;;;;;5056483;28;20023;-62
2023/08/26 15:19:50;;;;;;;;;;;;;;;;;;5065365;28;19917;-62
2023/08/26 15:22:16;;;;;;;;;;;;;;;;;;5062307;28;20344;-62
2023/08/26 15:24:42;;;;;;;;;;;;;;;;;;5071355;28;19940;-61
2023/08/26 15:27:07;;;;;;;;;;;;;;;;;;5069982;28;20007;-61
2023/08/26 15:29:33;;;;;;;;;;;;;;;;;;5065598;28;20317;-61
2023/08/26 15:31:59;;;;;;;;;;;;;;;;;;5060942;28;19924;-62
2023/08/26 15:34:27;;;;;;;;;;;;;;;;;;5066638;28;21406;-62
2023/08/26 15:36:53;;;;;;;;;;;;;;;;;;5069469;28;19970;-62
2023/08/26 15:39:19;;;;;;;;;;;;;;;;;;5067279;28;19981;-62
2023/08/26 15:41:45;;;;;;;;;;;;;;;;;;5062102;28;19921;-63
2023/08/26 15:44:10;;;;;;;;;;;;;;;;;;5063557;28;19913;-62
2023/08/26 15:46:36;;;;;;;;;;;;;;;;;;5070930;28;20332;-63
2023/08/26 15:49:03;;;;;;;;;;;;;;;;;;5067316;28;19948;-62
2023/08/26 15:51:29;;;;;;;;;;;;;;;;;;5073845;28;19958;-62
2023/08/26 15:53:55;;;;;;;;;;;;;;;;;;5061219;28;19968;-62
2023/08/26 15:56:21;;;;;;;;;;;;;;;;;;5064569;28;19999;-62
2023/08/26 15:58:47;;;;;;;;;;;;;;;;;;5074612;28;20287;-63
2023/08/26 16:01:13;;;;;;;;;;;;;;;;;;5067422;28;19943;-62
2023/08/26 16:03:39;;;;;;;;;;;;;;;;;;5063381;28;19966;-62
2023/08/26 16:06:05;;;;;;;;;;;;;;;;;;5060254;28;20421;-63
2023/08/26 16:08:33;;;;;;;;;;;;;;;;;;5074634;28;19915;-62
2023/08/26 16:10:58;;;;;;;;;;;;;;;;;;5071622;28;19909;-63
2023/08/26 16:13:24;;;;;;;;;;;;;;;;;;5067559;28;19990;-63
2023/08/26 16:15:50;;;;;;;;;;;;;;;;;;5071381;28;19940;-62
2023/08/26 16:18:16;;;;;;;;;;;;;;;;;;5071676;28;20018;-62
2023/08/26 16:20:42;;;;;;;;;;;;;;;;;;5071925;28;19931;-62
2023/08/26 16:23:08;;;;;;;;;;;;;;;;;;5074008;28;20325;-63
2023/08/26 16:25:34;;;;;;;;;;;;;;;;;;5069023;28;19943;-62
2023/08/26 16:28:01;;;;;;;;;;;;;;;;;;5068914;28;19982;-62
2023/08/26 16:30:27;;;;;;;;;;;;;;;;;;5071586;28;20004;-63
2023/08/26 16:32:53;;;;;;;;;;;;;;;;;;5071404;28;19967;-62
2023/08/26 16:35:19;;;;;;;;;;;;;;;;;;5073860;28;19962;-62
2023/08/26 16:37:45;;;;;;;;;;;;;;;;;;5073214;28;19991;-63